sensor_id;sensor_type;location;lat;lon;timestamp;pressure;altitude;pressure_sealevel;temperature;humidity
11856;BME280;5987;53.140;8.904;2022-10-16T00:02:02;100957.84;;;11.28;100.00
11856;BME280;5987;53.140;8.904;2022-10-16T00:05:07;100959.84;;;11.22;100.00
11856;BME280;5987;53.140;8.904;2022-10-16T00:08:12;100962.13;;;11.31;100.00
11856;BME280;5987;53.140;8.904;2022-10-16T00:11:19;100968.53;;;11.24;100.00
11856;BME280;5987;53.140;8.904;2022-10-16T00:14:23;100966.38;;;11.35;100.00
11856;BME280;5987;53.140;8.904;2022-10-16T00:17:27;100965.84;;;11.25;100.00
11856;BME280;5987;53.140;8.904;2022-10-16T00:20:34;100973.78;;;11.24;100.00
11856;BME280;5987;53.140;8.904;2022-10-16T00:23:39;100969.91;;;11.10;100.00
11856;BME280;5987;53.140;8.904;2022-10-16T00:26:44;100978.81;;;11.06;100.00
11856;BME280;5987;53.140;8.904;2022-10-16T00:29:50;100976.06;;;11.09;100.00
11856;BME280;5987;53.140;8.904;2022-10-16T00:32:54;100981.38;;;11.08;100.00
11856;BME280;5987;53.140;8.904;2022-10-16T00:35:58;100984.75;;;11.11;100.00
11856;BME280;5987;53.140;8.904;2022-10-16T00:39:03;100985.78;;;11.07;100.00
11856;BME280;5987;53.140;8.904;2022-10-16T00:42:12;100985.91;;;11.04;100.00
11856;BME280;5987;53.140;8.904;2022-10-16T00:45:17;100992.16;;;11.00;100.00
11856;BME280;5987;53.140;8.904;2022-10-16T00:48:21;101000.97;;;10.99;100.00
11856;BME280;5987;53.140;8.904;2022-10-16T00:51:31;100993.31;;;10.93;100.00
11856;BME280;5987;53.140;8.904;2022-10-16T00:54:36;101008.47;;;10.85;100.00
11856;BME280;5987;53.140;8.904;2022-10-16T00:57:43;101009.38;;;10.84;100.00
11856;BME280;5987;53.140;8.904;2022-10-16T01:00:47;101004.72;;;10.92;100.00
11856;BME280;5987;53.140;8.904;2022-10-16T01:03:51;101012.13;;;10.80;100.00
11856;BME280;5987;53.140;8.904;2022-10-16T01:07:04;101004.19;;;10.82;100.00
11856;BME280;5987;53.140;8.904;2022-10-16T01:10:23;101006.16;;;10.75;100.00
11856;BME280;5987;53.140;8.904;2022-10-16T01:13:40;100999.19;;;10.74;100.00
11856;BME280;5987;53.140;8.904;2022-10-16T01:16:51;101001.97;;;10.70;100.00
11856;BME280;5987;53.140;8.904;2022-10-16T01:20:11;100992.66;;;10.61;100.00
11856;BME280;5987;53.140;8.904;2022-10-16T01:23:37;100994.31;;;10.63;100.00
11856;BME280;5987;53.140;8.904;2022-10-16T01:27:15;100996.91;;;10.65;100.00
11856;BME280;5987;53.140;8.904;2022-10-16T01:30:25;101001.56;;;10.57;100.00
11856;BME280;5987;53.140;8.904;2022-10-16T01:33:35;100997.09;;;10.59;100.00
11856;BME280;5987;53.140;8.904;2022-10-16T01:36:48;101002.56;;;10.53;100.00
11856;BME280;5987;53.140;8.904;2022-10-16T01:39:58;101008.03;;;10.46;100.00
11856;BME280;5987;53.140;8.904;2022-10-16T01:43:10;101005.34;;;10.48;100.00
11856;BME280;5987;53.140;8.904;2022-10-16T01:46:20;101003.69;;;10.45;100.00
11856;BME280;5987;53.140;8.904;2022-10-16T01:49:31;101013.19;;;10.50;100.00
11856;BME280;5987;53.140;8.904;2022-10-16T01:52:41;101000.22;;;10.45;100.00
11856;BME280;5987;53.140;8.904;2022-10-16T01:55:48;100999.44;;;10.41;100.00
11856;BME280;5987;53.140;8.904;2022-10-16T01:59:00;101006.38;;;10.44;100.00
11856;BME280;5987;53.140;8.904;2022-10-16T02:02:09;101005.53;;;10.42;100.00
11856;BME280;5987;53.140;8.904;2022-10-16T02:05:20;101010.84;;;10.40;100.00
11856;BME280;5987;53.140;8.904;2022-10-16T02:08:29;101003.94;;;10.38;100.00
11856;BME280;5987;53.140;8.904;2022-10-16T02:11:34;100995.16;;;10.39;100.00
11856;BME280;5987;53.140;8.904;2022-10-16T02:14:40;101004.91;;;10.35;100.00
11856;BME280;5987;53.140;8.904;2022-10-16T02:17:44;101001.34;;;10.36;100.00
11856;BME280;5987;53.140;8.904;2022-10-16T02:20:55;101007.31;;;10.41;100.00
11856;BME280;5987;53.140;8.904;2022-10-16T02:24:06;101008.22;;;10.40;100.00
11856;BME280;5987;53.140;8.904;2022-10-16T02:27:19;101015.19;;;10.41;100.00
11856;BME280;5987;53.140;8.904;2022-10-16T02:30:32;101017.09;;;10.36;100.00
11856;BME280;5987;53.140;8.904;2022-10-16T02:33:40;101006.09;;;10.52;100.00
11856;BME280;5987;53.140;8.904;2022-10-16T02:36:48;101004.75;;;10.40;100.00
11856;BME280;5987;53.140;8.904;2022-10-16T02:39:54;101007.38;;;10.40;100.00
11856;BME280;5987;53.140;8.904;2022-10-16T02:42:58;100999.66;;;10.34;100.00
11856;BME280;5987;53.140;8.904;2022-10-16T02:46:03;101003.97;;;10.36;100.00
11856;BME280;5987;53.140;8.904;2022-10-16T02:49:07;100995.19;;;10.37;100.00
11856;BME280;5987;53.140;8.904;2022-10-16T02:52:11;100998.00;;;10.31;100.00
11856;BME280;5987;53.140;8.904;2022-10-16T02:55:14;101005.97;;;10.28;100.00
11856;BME280;5987;53.140;8.904;2022-10-16T02:58:18;101013.00;;;10.27;100.00
11856;BME280;5987;53.140;8.904;2022-10-16T03:01:23;101016.44;;;10.29;100.00
11856;BME280;5987;53.140;8.904;2022-10-16T03:04:27;101009.16;;;10.39;100.00
11856;BME280;5987;53.140;8.904;2022-10-16T03:07:31;101012.94;;;10.29;100.00
11856;BME280;5987;53.140;8.904;2022-10-16T03:10:34;101011.78;;;10.39;100.00
11856;BME280;5987;53.140;8.904;2022-10-16T03:13:38;101020.69;;;10.32;100.00
11856;BME280;5987;53.140;8.904;2022-10-16T03:16:43;101021.56;;;10.34;100.00
11856;BME280;5987;53.140;8.904;2022-10-16T03:19:47;101022.41;;;10.35;100.00
11856;BME280;5987;53.140;8.904;2022-10-16T03:22:51;101017.38;;;10.27;100.00
11856;BME280;5987;53.140;8.904;2022-10-16T03:25:54;101021.91;;;10.22;100.00
11856;BME280;5987;53.140;8.904;2022-10-16T03:28:58;101024.44;;;10.25;100.00
11856;BME280;5987;53.140;8.904;2022-10-16T03:32:03;101025.94;;;10.32;100.00
11856;BME280;5987;53.140;8.904;2022-10-16T03:35:08;101028.84;;;10.24;100.00
11856;BME280;5987;53.140;8.904;2022-10-16T03:38:11;101038.34;;;10.28;100.00
11856;BME280;5987;53.140;8.904;2022-10-16T03:41:15;101035.88;;;10.24;100.00
11856;BME280;5987;53.140;8.904;2022-10-16T03:44:19;101042.13;;;10.20;100.00
11856;BME280;5987;53.140;8.904;2022-10-16T03:47:24;101029.31;;;10.37;100.00
11856;BME280;5987;53.140;8.904;2022-10-16T03:50:28;101030.63;;;10.22;100.00
11856;BME280;5987;53.140;8.904;2022-10-16T03:53:31;101033.41;;;10.18;100.00
11856;BME280;5987;53.140;8.904;2022-10-16T03:56:35;101035.59;;;10.32;100.00
11856;BME280;5987;53.140;8.904;2022-10-16T03:59:39;101036.88;;;10.20;100.00
11856;BME280;5987;53.140;8.904;2022-10-16T04:02:44;101037.78;;;10.19;100.00
11856;BME280;5987;53.140;8.904;2022-10-16T04:05:52;101042.91;;;10.22;100.00
11856;BME280;5987;53.140;8.904;2022-10-16T04:08:56;101044.38;;;10.30;100.00
11856;BME280;5987;53.140;8.904;2022-10-16T04:12:00;101052.31;;;10.29;100.00
11856;BME280;5987;53.140;8.904;2022-10-16T04:15:04;101054.72;;;10.37;100.00
11856;BME280;5987;53.140;8.904;2022-10-16T04:18:09;101071.56;;;10.28;100.00
11856;BME280;5987;53.140;8.904;2022-10-16T04:21:12;101074.41;;;10.22;100.00
11856;BME280;5987;53.140;8.904;2022-10-16T04:24:16;101076.81;;;10.28;100.00
11856;BME280;5987;53.140;8.904;2022-10-16T04:27:20;101079.38;;;10.31;100.00
11856;BME280;5987;53.140;8.904;2022-10-16T04:30:23;101068.81;;;10.34;100.00
11856;BME280;5987;53.140;8.904;2022-10-16T04:33:28;101060.03;;;10.34;100.00
11856;BME280;5987;53.140;8.904;2022-10-16T04:36:32;101055.75;;;10.31;100.00
11856;BME280;5987;53.140;8.904;2022-10-16T04:39:35;101061.72;;;10.36;100.00
11856;BME280;5987;53.140;8.904;2022-10-16T04:42:39;101061.66;;;10.38;100.00
11856;BME280;5987;53.140;8.904;2022-10-16T04:45:43;101060.63;;;10.43;100.00
11856;BME280;5987;53.140;8.904;2022-10-16T04:48:48;101064.28;;;10.39;100.00
11856;BME280;5987;53.140;8.904;2022-10-16T04:51:52;101066.06;;;10.37;100.00
11856;BME280;5987;53.140;8.904;2022-10-16T04:54:56;101072.84;;;10.44;100.00
11856;BME280;5987;53.140;8.904;2022-10-16T04:58:03;101069.97;;;10.52;100.00
11856;BME280;5987;53.140;8.904;2022-10-16T05:01:06;101075.31;;;10.49;100.00
11856;BME280;5987;53.140;8.904;2022-10-16T05:04:12;101063.09;;;10.48;100.00
11856;BME280;5987;53.140;8.904;2022-10-16T05:07:17;101071.53;;;10.58;100.00
11856;BME280;5987;53.140;8.904;2022-10-16T05:10:21;101076.91;;;10.55;100.00
11856;BME280;5987;53.140;8.904;2022-10-16T05:13:24;101081.22;;;10.56;100.00
11856;BME280;5987;53.140;8.904;2022-10-16T05:16:28;101089.03;;;10.57;100.00
11856;BME280;5987;53.140;8.904;2022-10-16T05:19:34;101096.03;;;10.58;100.00
11856;BME280;5987;53.140;8.904;2022-10-16T05:22:38;101093.22;;;10.63;100.00
11856;BME280;5987;53.140;8.904;2022-10-16T05:25:41;101103.41;;;10.74;100.00
11856;BME280;5987;53.140;8.904;2022-10-16T05:28:45;101099.00;;;10.74;100.00
11856;BME280;5987;53.140;8.904;2022-10-16T05:31:51;101093.44;;;10.84;100.00
11856;BME280;5987;53.140;8.904;2022-10-16T05:34:56;101089.75;;;10.89;100.00
11856;BME280;5987;53.140;8.904;2022-10-16T05:38:01;101097.38;;;10.97;100.00
11856;BME280;5987;53.140;8.904;2022-10-16T05:41:06;101094.88;;;10.92;100.00
11856;BME280;5987;53.140;8.904;2022-10-16T05:44:10;101093.81;;;10.98;100.00
11856;BME280;5987;53.140;8.904;2022-10-16T05:47:14;101097.50;;;10.92;100.00
11856;BME280;5987;53.140;8.904;2022-10-16T05:50:19;101110.72;;;10.91;100.00
11856;BME280;5987;53.140;8.904;2022-10-16T05:53:23;101116.88;;;10.90;100.00
11856;BME280;5987;53.140;8.904;2022-10-16T05:56:27;101110.28;;;11.03;100.00
11856;BME280;5987;53.140;8.904;2022-10-16T05:59:32;101111.09;;;11.05;100.00
11856;BME280;5987;53.140;8.904;2022-10-16T06:02:36;101128.63;;;11.05;100.00
11856;BME280;5987;53.140;8.904;2022-10-16T06:05:41;101131.31;;;11.03;100.00
11856;BME280;5987;53.140;8.904;2022-10-16T06:08:46;101137.38;;;11.05;100.00
11856;BME280;5987;53.140;8.904;2022-10-16T06:11:50;101134.06;;;11.00;100.00
11856;BME280;5987;53.140;8.904;2022-10-16T06:14:54;101136.63;;;11.02;100.00
11856;BME280;5987;53.140;8.904;2022-10-16T06:17:58;101137.38;;;11.05;100.00
11856;BME280;5987;53.140;8.904;2022-10-16T06:21:10;101142.44;;;11.11;100.00
11856;BME280;5987;53.140;8.904;2022-10-16T06:24:14;101143.34;;;11.10;100.00
11856;BME280;5987;53.140;8.904;2022-10-16T06:27:17;101154.56;;;11.15;100.00
11856;BME280;5987;53.140;8.904;2022-10-16T06:30:21;101159.75;;;11.17;100.00
11856;BME280;5987;53.140;8.904;2022-10-16T06:33:24;101156.16;;;11.20;100.00
11856;BME280;5987;53.140;8.904;2022-10-16T06:36:29;101148.88;;;11.28;100.00
11856;BME280;5987;53.140;8.904;2022-10-16T06:39:33;101153.44;;;11.23;100.00
11856;BME280;5987;53.140;8.904;2022-10-16T06:42:37;101158.56;;;11.26;100.00
11856;BME280;5987;53.140;8.904;2022-10-16T06:45:40;101160.34;;;11.25;100.00
11856;BME280;5987;53.140;8.904;2022-10-16T06:48:44;101173.56;;;11.24;100.00
11856;BME280;5987;53.140;8.904;2022-10-16T06:51:49;101179.72;;;11.23;100.00
11856;BME280;5987;53.140;8.904;2022-10-16T06:54:53;101185.75;;;11.25;100.00
11856;BME280;5987;53.140;8.904;2022-10-16T06:57:57;101191.03;;;11.25;100.00
11856;BME280;5987;53.140;8.904;2022-10-16T07:01:00;101189.31;;;11.24;100.00
11856;BME280;5987;53.140;8.904;2022-10-16T07:04:04;101201.41;;;11.29;100.00
11856;BME280;5987;53.140;8.904;2022-10-16T07:07:09;101199.63;;;11.30;100.00
11856;BME280;5987;53.140;8.904;2022-10-16T07:10:13;101202.13;;;11.33;100.00
11856;BME280;5987;53.140;8.904;2022-10-16T07:13:16;101209.06;;;11.36;100.00
11856;BME280;5987;53.140;8.904;2022-10-16T07:16:23;101217.72;;;11.39;100.00
11856;BME280;5987;53.140;8.904;2022-10-16T07:19:27;101226.88;;;11.53;100.00
11856;BME280;5987;53.140;8.904;2022-10-16T07:22:36;101225.50;;;11.67;100.00
11856;BME280;5987;53.140;8.904;2022-10-16T07:25:40;101223.47;;;11.76;100.00
11856;BME280;5987;53.140;8.904;2022-10-16T07:28:44;101229.94;;;11.91;100.00
11856;BME280;5987;53.140;8.904;2022-10-16T07:31:48;101235.59;;;12.05;100.00
11856;BME280;5987;53.140;8.904;2022-10-16T07:34:52;101240.47;;;12.16;100.00
11856;BME280;5987;53.140;8.904;2022-10-16T07:37:59;101237.44;;;12.27;100.00
11856;BME280;5987;53.140;8.904;2022-10-16T07:41:06;101244.53;;;12.25;100.00
11856;BME280;5987;53.140;8.904;2022-10-16T07:44:11;101239.31;;;12.23;100.00
11856;BME280;5987;53.140;8.904;2022-10-16T07:47:14;101242.13;;;12.18;100.00
11856;BME280;5987;53.140;8.904;2022-10-16T07:50:18;101237.66;;;12.21;100.00
11856;BME280;5987;53.140;8.904;2022-10-16T07:53:23;101252.59;;;12.20;100.00
11856;BME280;5987;53.140;8.904;2022-10-16T07:56:30;101267.31;;;12.26;100.00
11856;BME280;5987;53.140;8.904;2022-10-16T07:59:34;101260.69;;;12.39;100.00
11856;BME280;5987;53.140;8.904;2022-10-16T08:02:38;101255.41;;;12.39;100.00
11856;BME280;5987;53.140;8.904;2022-10-16T08:05:42;101267.44;;;12.46;100.00
11856;BME280;5987;53.140;8.904;2022-10-16T08:08:47;101264.41;;;12.79;100.00
11856;BME280;5987;53.140;8.904;2022-10-16T08:11:51;101273.72;;;12.88;100.00
11856;BME280;5987;53.140;8.904;2022-10-16T08:14:54;101261.72;;;13.03;100.00
11856;BME280;5987;53.140;8.904;2022-10-16T08:18:00;101269.69;;;13.24;100.00
11856;BME280;5987;53.140;8.904;2022-10-16T08:21:07;101262.00;;;13.17;100.00
11856;BME280;5987;53.140;8.904;2022-10-16T08:24:19;101269.38;;;13.09;100.00
11856;BME280;5987;53.140;8.904;2022-10-16T08:27:23;101281.72;;;13.09;100.00
11856;BME280;5987;53.140;8.904;2022-10-16T08:30:27;101289.31;;;13.16;100.00
11856;BME280;5987;53.140;8.904;2022-10-16T08:33:31;101285.25;;;13.30;100.00
11856;BME280;5987;53.140;8.904;2022-10-16T08:36:37;101290.38;;;13.33;100.00
11856;BME280;5987;53.140;8.904;2022-10-16T08:39:42;101283.00;;;13.43;100.00
11856;BME280;5987;53.140;8.904;2022-10-16T08:43:24;101284.38;;;13.51;100.00
11856;BME280;5987;53.140;8.904;2022-10-16T08:46:43;101293.03;;;13.55;100.00
11856;BME280;5987;53.140;8.904;2022-10-16T08:49:59;101284.81;;;13.83;100.00
11856;BME280;5987;53.140;8.904;2022-10-16T08:53:05;101289.03;;;14.08;100.00
11856;BME280;5987;53.140;8.904;2022-10-16T08:56:11;101277.09;;;14.18;100.00
11856;BME280;5987;53.140;8.904;2022-10-16T08:59:16;101300.69;;;13.82;100.00
11856;BME280;5987;53.140;8.904;2022-10-16T09:02:28;101311.34;;;13.80;100.00
11856;BME280;5987;53.140;8.904;2022-10-16T09:06:00;101317.28;;;13.85;100.00
11856;BME280;5987;53.140;8.904;2022-10-16T09:09:49;101317.59;;;13.98;100.00
11856;BME280;5987;53.140;8.904;2022-10-16T09:13:08;101326.25;;;14.02;100.00
11856;BME280;5987;53.140;8.904;2022-10-16T09:16:19;101328.81;;;14.03;100.00
11856;BME280;5987;53.140;8.904;2022-10-16T09:19:33;101322.16;;;14.15;100.00
11856;BME280;5987;53.140;8.904;2022-10-16T09:22:40;101331.16;;;14.30;100.00
11856;BME280;5987;53.140;8.904;2022-10-16T09:25:47;101321.78;;;14.44;100.00
11856;BME280;5987;53.140;8.904;2022-10-16T09:28:53;101324.13;;;14.50;100.00
11856;BME280;5987;53.140;8.904;2022-10-16T09:32:10;101328.00;;;14.62;100.00
11856;BME280;5987;53.140;8.904;2022-10-16T09:35:19;101327.69;;;14.88;100.00
11856;BME280;5987;53.140;8.904;2022-10-16T09:38:28;101318.22;;;15.02;100.00
11856;BME280;5987;53.140;8.904;2022-10-16T09:41:35;101325.69;;;14.94;100.00
11856;BME280;5987;53.140;8.904;2022-10-16T09:44:41;101326.69;;;14.91;100.00
11856;BME280;5987;53.140;8.904;2022-10-16T09:47:45;101333.25;;;14.82;100.00
11856;BME280;5987;53.140;8.904;2022-10-16T09:50:56;101333.75;;;14.90;100.00
11856;BME280;5987;53.140;8.904;2022-10-16T09:54:12;101332.66;;;14.95;100.00
11856;BME280;5987;53.140;8.904;2022-10-16T09:57:16;101333.16;;;15.03;100.00
11856;BME280;5987;53.140;8.904;2022-10-16T10:00:23;101328.06;;;15.17;100.00
11856;BME280;5987;53.140;8.904;2022-10-16T10:03:36;101328.41;;;15.29;100.00
11856;BME280;5987;53.140;8.904;2022-10-16T10:06:44;101337.38;;;15.26;100.00
11856;BME280;5987;53.140;8.904;2022-10-16T10:09:49;101346.81;;;15.32;100.00
11856;BME280;5987;53.140;8.904;2022-10-16T10:12:53;101350.19;;;15.16;100.00
11856;BME280;5987;53.140;8.904;2022-10-16T10:15:59;101358.25;;;15.13;100.00
11856;BME280;5987;53.140;8.904;2022-10-16T10:19:03;101351.44;;;15.26;100.00
11856;BME280;5987;53.140;8.904;2022-10-16T10:22:24;101362.66;;;15.32;100.00
11856;BME280;5987;53.140;8.904;2022-10-16T10:25:44;101366.59;;;15.59;100.00
11856;BME280;5987;53.140;8.904;2022-10-16T10:29:01;101373.19;;;15.33;100.00
11856;BME280;5987;53.140;8.904;2022-10-16T10:32:23;101374.53;;;15.42;100.00
11856;BME280;5987;53.140;8.904;2022-10-16T10:35:40;101379.97;;;15.56;100.00
11856;BME280;5987;53.140;8.904;2022-10-16T10:38:51;101380.03;;;15.74;100.00
11856;BME280;5987;53.140;8.904;2022-10-16T10:42:12;101383.03;;;15.85;100.00
11856;BME280;5987;53.140;8.904;2022-10-16T10:45:26;101379.41;;;15.86;100.00
11856;BME280;5987;53.140;8.904;2022-10-16T10:48:54;101393.25;;;15.74;100.00
11856;BME280;5987;53.140;8.904;2022-10-16T10:52:26;101379.78;;;15.78;100.00
11856;BME280;5987;53.140;8.904;2022-10-16T10:55:44;101376.63;;;16.07;100.00
11856;BME280;5987;53.140;8.904;2022-10-16T10:59:13;101381.13;;;16.22;100.00
11856;BME280;5987;53.140;8.904;2022-10-16T11:02:26;101387.53;;;16.01;100.00
11856;BME280;5987;53.140;8.904;2022-10-16T11:05:44;101380.84;;;15.93;100.00
11856;BME280;5987;53.140;8.904;2022-10-16T11:08:54;101392.53;;;16.07;100.00
11856;BME280;5987;53.140;8.904;2022-10-16T11:12:11;101401.38;;;16.06;100.00
11856;BME280;5987;53.140;8.904;2022-10-16T11:15:21;101402.66;;;16.16;100.00
11856;BME280;5987;53.140;8.904;2022-10-16T11:18:38;101410.91;;;16.27;100.00
11856;BME280;5987;53.140;8.904;2022-10-16T11:21:55;101399.38;;;16.11;100.00
11856;BME280;5987;53.140;8.904;2022-10-16T11:25:06;101410.22;;;16.06;100.00
11856;BME280;5987;53.140;8.904;2022-10-16T11:28:23;101409.81;;;16.14;100.00
11856;BME280;5987;53.140;8.904;2022-10-16T11:31:37;101416.03;;;15.95;100.00
11856;BME280;5987;53.140;8.904;2022-10-16T11:34:48;101415.28;;;16.11;100.00
11856;BME280;5987;53.140;8.904;2022-10-16T11:37:57;101416.28;;;16.26;100.00
11856;BME280;5987;53.140;8.904;2022-10-16T11:41:11;101423.75;;;16.35;100.00
11856;BME280;5987;53.140;8.904;2022-10-16T11:44:38;101423.44;;;16.41;100.00
11856;BME280;5987;53.140;8.904;2022-10-16T11:47:51;101428.28;;;16.16;100.00
11856;BME280;5987;53.140;8.904;2022-10-16T11:51:10;101427.13;;;16.39;100.00
11856;BME280;5987;53.140;8.904;2022-10-16T11:54:28;101444.16;;;16.51;100.00
11856;BME280;5987;53.140;8.904;2022-10-16T11:57:43;101447.06;;;16.28;100.00
11856;BME280;5987;53.140;8.904;2022-10-16T12:00:59;101447.06;;;16.46;100.00
11856;BME280;5987;53.140;8.904;2022-10-16T12:04:22;101443.69;;;16.60;100.00
11856;BME280;5987;53.140;8.904;2022-10-16T12:07:37;101455.09;;;16.44;100.00
11856;BME280;5987;53.140;8.904;2022-10-16T12:10:47;101453.38;;;16.26;100.00
11856;BME280;5987;53.140;8.904;2022-10-16T12:13:51;101462.25;;;16.07;100.00
11856;BME280;5987;53.140;8.904;2022-10-16T12:16:58;101466.69;;;16.07;100.00
11856;BME280;5987;53.140;8.904;2022-10-16T12:20:22;101462.19;;;16.09;100.00
11856;BME280;5987;53.140;8.904;2022-10-16T12:23:26;101469.97;;;16.12;100.00
11856;BME280;5987;53.140;8.904;2022-10-16T12:26:34;101474.34;;;16.31;100.00
11856;BME280;5987;53.140;8.904;2022-10-16T12:29:44;101480.81;;;16.60;100.00
11856;BME280;5987;53.140;8.904;2022-10-16T12:32:54;101478.16;;;16.42;100.00
11856;BME280;5987;53.140;8.904;2022-10-16T12:36:02;101476.22;;;16.46;100.00
11856;BME280;5987;53.140;8.904;2022-10-16T12:39:21;101474.50;;;16.62;100.00
11856;BME280;5987;53.140;8.904;2022-10-16T12:42:35;101476.41;;;16.94;100.00
11856;BME280;5987;53.140;8.904;2022-10-16T12:45:39;101490.50;;;16.94;100.00
11856;BME280;5987;53.140;8.904;2022-10-16T12:48:44;101501.28;;;16.91;100.00
11856;BME280;5987;53.140;8.904;2022-10-16T12:52:27;101496.28;;;17.03;100.00
11856;BME280;5987;53.140;8.904;2022-10-16T12:55:43;101492.25;;;17.11;100.00
11856;BME280;5987;53.140;8.904;2022-10-16T12:59:09;101503.94;;;17.09;100.00
11856;BME280;5987;53.140;8.904;2022-10-16T13:02:44;101508.63;;;17.20;100.00
11856;BME280;5987;53.140;8.904;2022-10-16T13:06:10;101503.59;;;17.31;100.00
11856;BME280;5987;53.140;8.904;2022-10-16T13:09:34;101508.13;;;17.13;100.00
11856;BME280;5987;53.140;8.904;2022-10-16T13:13:27;101515.00;;;17.33;100.00
11856;BME280;5987;53.140;8.904;2022-10-16T13:16:50;101513.72;;;17.24;100.00
11856;BME280;5987;53.140;8.904;2022-10-16T13:20:12;101527.09;;;17.39;100.00
11856;BME280;5987;53.140;8.904;2022-10-16T13:23:24;101527.72;;;17.10;100.00
11856;BME280;5987;53.140;8.904;2022-10-16T13:26:41;101524.91;;;16.96;100.00
11856;BME280;5987;53.140;8.904;2022-10-16T13:29:52;101530.19;;;16.97;100.00
11856;BME280;5987;53.140;8.904;2022-10-16T13:33:03;101536.09;;;16.85;100.00
11856;BME280;5987;53.140;8.904;2022-10-16T13:36:21;101549.97;;;16.73;100.00
11856;BME280;5987;53.140;8.904;2022-10-16T13:39:27;101546.59;;;16.69;100.00
11856;BME280;5987;53.140;8.904;2022-10-16T13:42:33;101548.25;;;16.72;100.00
11856;BME280;5987;53.140;8.904;2022-10-16T13:45:36;101556.03;;;16.75;100.00
11856;BME280;5987;53.140;8.904;2022-10-16T13:48:42;101559.25;;;16.81;100.00
11856;BME280;5987;53.140;8.904;2022-10-16T13:51:55;101562.47;;;16.88;100.00
11856;BME280;5987;53.140;8.904;2022-10-16T13:54:59;101568.31;;;16.95;100.00
11856;BME280;5987;53.140;8.904;2022-10-16T13:58:10;101561.69;;;17.04;100.00
11856;BME280;5987;53.140;8.904;2022-10-16T14:01:19;101571.28;;;16.89;100.00
11856;BME280;5987;53.140;8.904;2022-10-16T14:04:33;101576.44;;;16.92;100.00
11856;BME280;5987;53.140;8.904;2022-10-16T14:07:38;101589.97;;;16.86;100.00
11856;BME280;5987;53.140;8.904;2022-10-16T14:10:46;101583.19;;;16.80;100.00
11856;BME280;5987;53.140;8.904;2022-10-16T14:13:52;101589.28;;;16.64;100.00
11856;BME280;5987;53.140;8.904;2022-10-16T14:16:56;101593.00;;;16.60;100.00
11856;BME280;5987;53.140;8.904;2022-10-16T14:20:06;101598.31;;;16.60;100.00
11856;BME280;5987;53.140;8.904;2022-10-16T14:23:23;101607.91;;;16.63;100.00
11856;BME280;5987;53.140;8.904;2022-10-16T14:26:41;101606.94;;;16.46;100.00
11856;BME280;5987;53.140;8.904;2022-10-16T14:30:15;101600.56;;;16.33;100.00
11856;BME280;5987;53.140;8.904;2022-10-16T14:33:24;101616.66;;;16.28;100.00
11856;BME280;5987;53.140;8.904;2022-10-16T14:36:30;101615.72;;;16.29;100.00
11856;BME280;5987;53.140;8.904;2022-10-16T14:39:35;101616.31;;;16.17;100.00
11856;BME280;5987;53.140;8.904;2022-10-16T14:42:44;101614.63;;;16.16;100.00
11856;BME280;5987;53.140;8.904;2022-10-16T14:45:53;101613.03;;;16.12;100.00
11856;BME280;5987;53.140;8.904;2022-10-16T14:49:05;101610.75;;;16.04;100.00
11856;BME280;5987;53.140;8.904;2022-10-16T14:52:18;101611.63;;;16.05;100.00
11856;BME280;5987;53.140;8.904;2022-10-16T14:55:22;101622.63;;;15.95;100.00
11856;BME280;5987;53.140;8.904;2022-10-16T14:58:30;101621.91;;;15.92;100.00
11856;BME280;5987;53.140;8.904;2022-10-16T15:01:34;101623.00;;;15.88;100.00
11856;BME280;5987;53.140;8.904;2022-10-16T15:04:38;101623.47;;;15.77;100.00
11856;BME280;5987;53.140;8.904;2022-10-16T15:07:44;101628.25;;;15.69;100.00
11856;BME280;5987;53.140;8.904;2022-10-16T15:10:47;101629.31;;;15.65;100.00
11856;BME280;5987;53.140;8.904;2022-10-16T15:13:51;101640.75;;;15.65;100.00
11856;BME280;5987;53.140;8.904;2022-10-16T15:16:55;101649.91;;;15.58;100.00
11856;BME280;5987;53.140;8.904;2022-10-16T15:19:58;101655.47;;;15.52;100.00
11856;BME280;5987;53.140;8.904;2022-10-16T15:23:09;101661.09;;;15.44;100.00
11856;BME280;5987;53.140;8.904;2022-10-16T15:26:14;101659.13;;;15.29;100.00
11856;BME280;5987;53.140;8.904;2022-10-16T15:29:19;101663.56;;;15.28;100.00
11856;BME280;5987;53.140;8.904;2022-10-16T15:32:22;101662.97;;;15.21;100.00
11856;BME280;5987;53.140;8.904;2022-10-16T15:35:26;101677.00;;;15.23;100.00
11856;BME280;5987;53.140;8.904;2022-10-16T15:38:31;101671.84;;;15.20;100.00
11856;BME280;5987;53.140;8.904;2022-10-16T15:41:35;101674.81;;;15.33;100.00
11856;BME280;5987;53.140;8.904;2022-10-16T15:44:39;101675.34;;;15.41;100.00
11856;BME280;5987;53.140;8.904;2022-10-16T15:47:43;101681.22;;;15.48;100.00
11856;BME280;5987;53.140;8.904;2022-10-16T15:50:47;101676.41;;;15.17;100.00
11856;BME280;5987;53.140;8.904;2022-10-16T15:53:52;101677.31;;;14.95;100.00
11856;BME280;5987;53.140;8.904;2022-10-16T15:56:56;101667.66;;;14.72;100.00
11856;BME280;5987;53.140;8.904;2022-10-16T15:59:59;101667.22;;;14.61;100.00
11856;BME280;5987;53.140;8.904;2022-10-16T16:03:07;101660.59;;;14.50;100.00
11856;BME280;5987;53.140;8.904;2022-10-16T16:06:13;101676.44;;;14.50;100.00
11856;BME280;5987;53.140;8.904;2022-10-16T16:09:18;101684.28;;;14.30;100.00
11856;BME280;5987;53.140;8.904;2022-10-16T16:12:22;101694.72;;;14.11;100.00
11856;BME280;5987;53.140;8.904;2022-10-16T16:15:27;101698.59;;;14.00;100.00
11856;BME280;5987;53.140;8.904;2022-10-16T16:18:30;101704.31;;;13.88;100.00
11856;BME280;5987;53.140;8.904;2022-10-16T16:21:35;101705.47;;;13.81;100.00
11856;BME280;5987;53.140;8.904;2022-10-16T16:24:40;101712.66;;;13.77;100.00
11856;BME280;5987;53.140;8.904;2022-10-16T16:27:43;101720.19;;;13.63;100.00